»·PEaware :: N501NM KTRM-KTRM

N501NM :: KTRM-KTRM

FLIGHT INFORMATION

Flight Status: Arrived
Operator: Privately registered:
United States
More flights under this callsign
Pilot: Erik A. (17503)
Aircraft: CANADAIR CL-600 CHALLENGER
(CL60)
More flights by this aircraft type
Origin: KTRM Desert Resorts Regl
United States
Destination: KTRM Desert Resorts Regl
United States
More flights between these airports :: More routes between these airports
Route: HENOM V137 IPL V458 JLI V208 TNP V370 PSP KARRO
File this flight plan on PilotEdge
Remarks: Challenger test-flight 002
Altitude:
(Current/Filed)
15,500ft
Speed:
(Current/Filed)
280kts
Departed: 10-Nov-23 01:44 PM
Arrived: 10-Nov-23 02:44 PM
Distance/Time
Traveled:
1nm/1:00
Distance/Time
To Go:
Arrived

Flight Plot

Page will automatically refresh every two minutes.

Flight plan parsing failed; only flown route is shown


Map Options




Map Legend


Flown Route
Filed Route
Departure Airport
Arrival Airport
Navaid (VOR, NDB)
Fix

Horizontal Profiles

Position Reports

Time Latitude Longitude Heading Altitude Ground
Speed
10-Nov-23 13:31 33.638254 -116.158794 197 -107ft 0kts
10-Nov-23 13:32 33.638253 -116.158794 197 -107ft 0kts
10-Nov-23 13:33 33.638246 -116.158796 197 -107ft 0kts
10-Nov-23 13:34 33.637968 -116.158875 184 -107ft 4kts
10-Nov-23 13:35 33.637696 -116.158821 160 -108ft 0kts
10-Nov-23 13:36 33.638297 -116.157739 1 -107ft 10kts
10-Nov-23 13:37 33.639067 -116.157313 86 -107ft 0kts
10-Nov-23 13:38 33.639067 -116.157313 86 -107ft 0kts
10-Nov-23 13:39 33.639067 -116.157313 86 -107ft 0kts
10-Nov-23 13:40 33.639067 -116.157313 86 -107ft 0kts
10-Nov-23 13:41 33.639067 -116.157313 86 -107ft 0kts
10-Nov-23 13:43 33.639077 -116.157060 89 -107ft 5kts
10-Nov-23 13:44 33.620925 -116.156712 182 225ft 180kts
10-Nov-23 13:45 33.569596 -116.142144 138 4849ft 254kts
10-Nov-23 13:46 33.513906 -116.083007 141 10499ft 225kts
10-Nov-23 13:47 33.463724 -116.028631 137 11952ft 256kts
10-Nov-23 13:48 33.405408 -115.978455 150 14548ft 265kts
10-Nov-23 13:49 33.341861 -115.926218 145 15964ft 312kts
10-Nov-23 13:50 33.264373 -115.856873 143 15985ft 374kts
10-Nov-23 13:51 33.176940 -115.779227 144 15996ft 400kts
10-Nov-23 13:52 33.085906 -115.700126 145 16009ft 406kts
10-Nov-23 13:53 32.993576 -115.620808 145 16011ft 411kts
10-Nov-23 13:54 32.898873 -115.543343 157 16021ft 413kts
10-Nov-23 13:55 32.792523 -115.563306 222 16006ft 399kts
10-Nov-23 13:56 32.753418 -115.679728 272 15997ft 388kts
10-Nov-23 13:57 32.757177 -115.805430 273 16719ft 377kts
10-Nov-23 13:58 32.760311 -115.925427 273 16992ft 354kts
10-Nov-23 13:59 32.764043 -116.039802 282 16996ft 339kts
10-Nov-23 14:00 32.816923 -116.129756 310 16985ft 335kts
10-Nov-23 14:01 32.877718 -116.214264 310 16968ft 335kts
10-Nov-23 14:02 32.938187 -116.298811 310 16978ft 335kts
10-Nov-23 14:03 32.998586 -116.383629 310 16976ft 335kts
10-Nov-23 14:04 33.058896 -116.468614 310 16952ft 335kts
10-Nov-23 14:05 33.125117 -116.546295 337 16947ft 337kts
10-Nov-23 14:06 33.214043 -116.521985 35 16938ft 351kts
10-Nov-23 14:07 33.293329 -116.452160 34 16976ft 353kts
10-Nov-23 14:08 33.373627 -116.381673 34 16970ft 359kts
10-Nov-23 14:09 33.454302 -116.310853 34 16979ft 359kts
10-Nov-23 14:10 33.535129 -116.239847 34 16988ft 359kts
10-Nov-23 14:11 33.616108 -116.168567 34 16174ft 355kts
10-Nov-23 14:11 33.683522 -116.113773 31 15968ft 351kts
10-Nov-23 14:13 33.778834 -116.037092 31 15962ft 351kts
10-Nov-23 14:14 33.860258 -115.971432 31 15980ft 351kts
10-Nov-23 14:15 33.941861 -115.905495 32 15968ft 352kts
10-Nov-23 14:15 34.016369 -115.892128 327 15988ft 340kts
10-Nov-23 14:16 34.031448 -115.992914 248 15960ft 344kts
10-Nov-23 14:17 33.992867 -116.098596 249 15979ft 337kts
10-Nov-23 14:18 33.959281 -116.189591 249 15796ft 271kts
10-Nov-23 14:20 33.923942 -116.285112 250 14208ft 265kts
10-Nov-23 14:20 33.899136 -116.352009 249 13093ft 260kts
10-Nov-23 14:21 33.859662 -116.422499 206 11923ft 265kts
10-Nov-23 14:22 33.785568 -116.422737 178 11906ft 274kts
10-Nov-23 14:23 33.709264 -116.416067 178 11908ft 274kts
10-Nov-23 14:24 33.633083 -116.409198 178 11908ft 273kts
10-Nov-23 14:25 33.560635 -116.403107 177 11897ft 251kts
10-Nov-23 14:26 33.490986 -116.396490 177 11817ft 253kts
10-Nov-23 14:27 33.421376 -116.390043 177 10789ft 244kts
10-Nov-23 14:28 33.353726 -116.383836 177 9754ft 241kts
10-Nov-23 14:29 33.287268 -116.376198 161 8734ft 238kts
10-Nov-23 14:30 33.260796 -116.312045 93 7796ft 227kts
10-Nov-23 14:31 33.255972 -116.236426 92 7404ft 227kts
10-Nov-23 14:32 33.251433 -116.161051 92 7017ft 225kts
10-Nov-23 14:33 33.263689 -116.091936 48 6495ft 223kts
10-Nov-23 14:34 33.302842 -116.036245 48 5643ft 215kts
10-Nov-23 14:35 33.341601 -115.982265 39 4830ft 211kts
10-Nov-23 14:36 33.392294 -115.993699 320 4105ft 206kts
10-Nov-23 14:37 33.436635 -116.039062 320 3603ft 208kts
10-Nov-23 14:38 33.480626 -116.083985 321 3058ft 206kts
10-Nov-23 14:39 33.523878 -116.128046 320 1839ft 182kts
10-Nov-23 14:40 33.563480 -116.146905 340 1258ft 139kts
10-Nov-23 14:41 33.599248 -116.156887 0 219ft 129kts
10-Nov-23 14:42 33.630318 -116.156416 1 -116ft 54kts
10-Nov-23 14:43 33.639053 -116.157220 268 -107ft 6kts
10-Nov-23 14:44 33.638295 -116.158784 178 -107ft 0kts
10-Nov-23 14:45 33.638295 -116.158784 178 -107ft 0kts
10-Nov-23 14:46 33.638295 -116.158784 178 -107ft 0kts
10-Nov-23 14:47 33.638295 -116.158784 178 -107ft 0kts
10-Nov-23 14:48 33.638295 -116.158784 178 -107ft 0kts
10-Nov-23 14:49 33.638295 -116.158784 178 -107ft 0kts
10-Nov-23 14:50 33.638295 -116.158784 178 -107ft 0kts
10-Nov-23 14:51 33.638295 -116.158784 178 -107ft 0kts
10-Nov-23 14:52 33.638295 -116.158783 179 -107ft 0kts
10-Nov-23 14:53 33.638295 -116.158783 179 -107ft 0kts
10-Nov-23 14:54 33.638295 -116.158783 179 -107ft 0kts
10-Nov-23 14:55 33.638295 -116.158783 179 -107ft 0kts
10-Nov-23 14:56 33.638295 -116.158782 179 -107ft 0kts
10-Nov-23 14:57 33.638295 -116.158782 180 -107ft 0kts

Navigation Log

Ident Type
Flight plan parsing failed, navigation log unavailable